| Date | Time | Temp. (oF) | Dew Point (oF) | Rel. Hum. (%) | Press. (in.) | Wind Dir. | Wind Speed (mph) | Hourly Rainfall (in.) |
|
|---|---|---|---|---|---|---|---|---|---|
| 1 | 11/25 | 00:00 | 40 | 38 | 96 | 29.78 | SSW | 3 | 0.00 |
| 2 | 11/24 | 23:00 | 40 | 38 | 95 | 29.81 | S | 5 | 0.05 |
| 3 | 11/24 | 22:00 | 40 | 37 | 89 | 29.85 | SSW | 3 | 0.01 |
| 4 | 11/24 | 21:00 | 42 | 33 | 73 | 29.89 | SSW | 9 | 0.00 |
| 5 | 11/24 | 20:00 | 45 | 28 | 52 | 29.89 | SW | 6 | 0.00 |
| 6 | 11/24 | 19:00 | 46 | 26 | 47 | 29.93 | SSW | 7 | 0.00 |
| 7 | 11/24 | 18:00 | 45 | 26 | 48 | 29.95 | SSW | 6 | 0.00 |
| 8 | 11/24 | 17:00 | 45 | 29 | 54 | 29.98 | S | 4 | 0.00 |
| 9 | 11/24 | 16:00 | 45 | 28 | 53 | 30.01 | ESE | 6 | 0.00 |
| 10 | 11/24 | 15:00 | 45 | 30 | 57 | 30.04 | S | 4 | 0.00 |
| 11 | 11/24 | 14:00 | 44 | 29 | 56 | 30.06 | S | 10 | 0.00 |
| 12 | 11/24 | 13:00 | 42 | 29 | 60 | 30.10 | S | 2 | 0.00 |
| 13 | 11/24 | 12:00 | 41 | 30 | 67 | 30.15 | S | 5 | 0.00 |
| 14 | 11/24 | 11:00 | 37 | 31 | 81 | 30.20 | SE | 0 | 0.00 |
| 15 | 11/24 | 10:00 | 33 | 30 | 91 | 30.24 | S | 0 | 0.00 |
| 16 | 11/24 | 09:00 | 30 | 28 | 95 | 30.23 | ENE | 3 | 0.00 |
| 17 | 11/24 | 08:00 | 25 | 24 | 97 | 30.26 | SSE | 2 | 0.00 |
| 18 | 11/24 | 07:00 | 23 | 22 | 97 | 30.27 | NNE | 0 | 0.00 |
| 19 | 11/24 | 06:00 | 24 | 23 | 98 | 30.28 | NNE | 3 | 0.00 |
| 20 | 11/24 | 05:00 | 23 | 21 | 93 | 30.29 | NE | 0 | 0.00 |
| 21 | 11/24 | 04:00 | 22 | 20 | 94 | 30.30 | NNE | 0 | 0.00 |
| 22 | 11/24 | 03:00 | 23 | 21 | 94 | 30.32 | N | 0 | 0.00 |
| 23 | 11/24 | 02:00 | 22 | 19 | 91 | 30.34 | NNW | 0 | 0.00 |
| 24 | 11/24 | 01:00 | 24 | 20 | 87 | 30.34 | NNW | 0 | 0.00 |